Time;durP1;ratioP1;P1;durP2;ratioP2;P2;SDS_P1;SDS_P2;PMS_P1;PMS_P2;Temp;Humidity;BMP_temperature;BMP_pressure;BME280_temperature;BME280_humidity;BME280_pressure;Samples;Min_cycle;Max_cycle;Signal;HPM_P1;HPM_P2
2021/06/01 00:01:30;;;;;;;7.60;6.20;;;;;;;;;;5094376;28;20111;-60
2021/06/01 00:03:56;;;;;;;8.02;5.80;;;;;;;;;;5094465;28;20078;-60
2021/06/01 00:06:21;;;;;;;8.13;6.00;;;;;;;;;;5094394;28;20036;-60
2021/06/01 00:08:47;;;;;;;5.88;5.25;;;;;;;;;;5094556;28;20519;-61
2021/06/01 00:11:12;;;;;;;6.13;5.22;;;;;;;;;;5094538;28;20035;-60
2021/06/01 00:13:38;;;;;;;6.43;4.85;;;;;;;;;;5094354;28;20055;-60
2021/06/01 00:16:05;;;;;;;5.55;5.00;;;;;;;;;;5094402;28;20031;-60
2021/06/01 00:18:30;;;;;;;5.57;4.80;;;;;;;;;;5076195;28;20522;-60
2021/06/01 00:20:56;;;;;;;5.65;4.93;;;;;;;;;;5094113;28;20111;-60
2021/06/01 00:23:21;;;;;;;6.15;4.75;;;;;;;;;;5076064;28;20024;-60
2021/06/01 00:25:47;;;;;;;5.07;3.78;;;;;;;;;;5094126;28;20043;-60
2021/06/01 00:28:12;;;;;;;6.10;3.45;;;;;;;;;;5093815;28;20024;-60
2021/06/01 00:30:40;;;;;;;5.25;3.38;;;;;;;;;;5093953;28;20062;-60
2021/06/01 00:33:06;;;;;;;3.38;3.10;;;;;;;;;;5093814;28;20443;-59
2021/06/01 00:35:33;;;;;;;4.28;3.28;;;;;;;;;;5094230;28;20028;-59
2021/06/01 00:37:59;;;;;;;4.18;3.08;;;;;;;;;;5093718;28;20150;-59
2021/06/01 00:40:25;;;;;;;4.32;3.35;;;;;;;;;;5093639;28;20131;-59
2021/06/01 00:42:50;;;;;;;4.03;3.33;;;;;;;;;;5094003;28;20474;-59
2021/06/01 00:45:18;;;;;;;3.85;3.45;;;;;;;;;;5075853;28;20499;-59
2021/06/01 00:47:44;;;;;;;3.35;3.05;;;;;;;;;;5093921;28;20035;-59
2021/06/01 00:50:10;;;;;;;4.00;3.40;;;;;;;;;;5093595;28;20040;-58
2021/06/01 00:52:35;;;;;;;4.13;2.95;;;;;;;;;;5093840;28;20020;-60
2021/06/01 00:55:02;;;;;;;4.57;3.22;;;;;;;;;;5093533;28;20030;-60
2021/06/01 00:57:28;;;;;;;3.22;2.92;;;;;;;;;;5093784;28;20048;-60
2021/06/01 00:59:53;;;;;;;4.18;3.35;;;;;;;;;;5093877;28;20074;-61
2021/06/01 01:02:18;;;;;;;3.95;3.08;;;;;;;;;;5093753;28;20043;-59
2021/06/01 01:04:45;;;;;;;3.20;3.00;;;;;;;;;;5075650;28;20075;-59
2021/06/01 01:07:21;;;;;;;3.55;3.25;;;;;;;;;;5093822;28;20021;-61
2021/06/01 01:09:47;;;;;;;4.80;2.97;;;;;;;;;;5093503;28;20035;-60
2021/06/01 01:12:42;;;;;;;3.20;2.97;;;;;;;;;;5093693;28;20042;-60
2021/06/01 01:15:08;;;;;;;3.40;3.10;;;;;;;;;;5079894;28;20044;-60
2021/06/01 01:17:48;;;;;;;3.40;3.10;;;;;;;;;;5093564;28;20118;-59
2021/06/01 01:20:32;;;;;;;3.10;2.90;;;;;;;;;;5093393;28;20028;-59
2021/06/01 01:23:00;;;;;;;3.60;3.30;;;;;;;;;;5093350;28;20040;-59
2021/06/01 01:25:44;;;;;;;3.70;2.97;;;;;;;;;;5093426;28;20016;-58
2021/06/01 01:28:28;;;;;;;4.95;3.40;;;;;;;;;;5075280;28;20032;-58
2021/06/01 01:30:57;;;;;;;5.82;4.10;;;;;;;;;;5093196;28;20036;-59
2021/06/01 01:33:27;;;;;;;6.80;4.70;;;;;;;;;;5093424;28;20099;-59
2021/06/01 01:36:01;;;;;;;5.22;4.05;;;;;;;;;;5093438;28;20381;-59
2021/06/01 01:38:27;;;;;;;5.63;4.07;;;;;;;;;;5093016;28;20024;-60
2021/06/01 01:40:54;;;;;;;5.55;3.55;;;;;;;;;;5093407;28;20351;-60
2021/06/01 01:43:20;;;;;;;4.63;3.35;;;;;;;;;;5092779;28;20478;-61
2021/06/01 01:45:52;;;;;;;3.95;3.40;;;;;;;;;;5093274;28;20024;-60
2021/06/01 01:51:14;;;;;;;3.67;3.17;;;;;;;;;;5096885;28;20039;-59
2021/06/01 01:53:53;;;;;;;3.38;3.08;;;;;;;;;;5097299;28;20033;-59
2021/06/01 01:56:20;;;;;;;3.17;2.78;;;;;;;;;;5096701;28;20020;-60
2021/06/01 01:58:48;;;;;;;4.68;2.90;;;;;;;;;;5096885;28;20048;-60
2021/06/01 02:01:14;;;;;;;3.30;3.00;;;;;;;;;;5096736;28;20482;-59
2021/06/01 02:03:40;;;;;;;2.80;2.50;;;;;;;;;;5078734;28;20119;-59
2021/06/01 02:06:05;;;;;;;3.55;2.67;;;;;;;;;;5096743;28;20063;-59
2021/06/01 02:08:31;;;;;;;3.42;3.13;;;;;;;;;;5096979;28;20427;-58
2021/06/01 02:10:56;;;;;;;2.90;2.70;;;;;;;;;;5096541;28;20551;-59
2021/06/01 02:13:22;;;;;;;4.07;2.97;;;;;;;;;;5078491;28;20539;-59
2021/06/01 02:15:48;;;;;;;4.20;2.85;;;;;;;;;;5096487;28;20071;-59
2021/06/01 02:18:13;;;;;;;3.25;3.00;;;;;;;;;;5096439;28;20186;-60
2021/06/01 02:20:39;;;;;;;2.90;2.70;;;;;;;;;;5096458;28;20035;-60
2021/06/01 02:26:09;;;;;;;2.70;2.50;;;;;;;;;;5096591;28;20107;-60
2021/06/01 02:28:38;;;;;;;3.13;2.83;;;;;;;;;;5096586;28;20083;-60
2021/06/01 02:31:04;;;;;;;4.68;3.00;;;;;;;;;;5096462;28;20377;-60
2021/06/01 02:33:31;;;;;;;5.18;3.10;;;;;;;;;;5096258;28;20066;-60
2021/06/01 02:35:58;;;;;;;4.18;3.65;;;;;;;;;;5096191;28;20032;-60
2021/06/01 02:38:24;;;;;;;3.88;3.42;;;;;;;;;;5095879;28;20024;-60
2021/06/01 02:40:52;;;;;;;4.40;3.60;;;;;;;;;;5096284;28;20054;-59
2021/06/01 02:43:18;;;;;;;7.05;3.92;;;;;;;;;;5096182;28;20489;-59
2021/06/01 02:45:44;;;;;;;4.63;3.50;;;;;;;;;;5096256;28;20024;-58
2021/06/01 02:48:13;;;;;;;9.23;5.78;;;;;;;;;;5096316;28;20035;-58
2021/06/01 02:50:40;;;;;;;8.52;7.10;;;;;;;;;;5077964;28;20494;-59
2021/06/01 02:53:07;;;;;;;9.45;6.57;;;;;;;;;;5095834;28;20031;-59
2021/06/01 02:55:33;;;;;;;5.32;4.28;;;;;;;;;;5095838;28;20133;-59
2021/06/01 02:57:59;;;;;;;5.05;4.45;;;;;;;;;;5077755;28;20051;-59
2021/06/01 03:00:25;;;;;;;4.15;3.40;;;;;;;;;;5094761;28;20073;-58
2021/06/01 03:02:51;;;;;;;4.70;2.90;;;;;;;;;;5095087;28;20024;-58
2021/06/01 03:05:17;;;;;;;4.88;3.47;;;;;;;;;;5095595;28;20023;-60
2021/06/01 03:07:46;;;;;;;4.15;3.78;;;;;;;;;;5095510;28;20024;-60
2021/06/01 03:10:12;;;;;;;4.22;3.70;;;;;;;;;;5095382;28;20011;-59
2021/06/01 03:15:05;;;;;;;3.95;3.38;;;;;;;;;;5095396;28;20110;-59
2021/06/01 03:17:31;;;;;;;4.60;3.63;;;;;;;;;;5095211;28;20026;-59
2021/06/01 03:19:56;;;;;;;3.78;3.47;;;;;;;;;;5095044;28;20381;-60
2021/06/01 03:22:22;;;;;;;5.50;3.53;;;;;;;;;;5095171;28;20090;-60
2021/06/01 03:24:47;;;;;;;3.58;3.03;;;;;;;;;;5077094;28;20362;-60
2021/06/01 03:27:13;;;;;;;4.13;3.55;;;;;;;;;;5095111;28;20028;-60
2021/06/01 03:29:39;;;;;;;3.80;3.42;;;;;;;;;;5095112;28;20020;-60
2021/06/01 03:32:04;;;;;;;3.75;3.40;;;;;;;;;;5095090;28;20035;-61
2021/06/01 03:34:30;;;;;;;3.22;3.03;;;;;;;;;;5095705;28;20016;-60
2021/06/01 03:36:55;;;;;;;6.50;3.58;;;;;;;;;;5095315;28;20490;-60
2021/06/01 03:39:21;;;;;;;5.38;3.53;;;;;;;;;;5094742;28;20044;-60
2021/06/01 03:41:47;;;;;;;4.05;3.13;;;;;;;;;;5095240;28;20053;-60
2021/06/01 03:44:13;;;;;;;3.50;3.20;;;;;;;;;;5095006;28;20031;-60
2021/06/01 03:46:39;;;;;;;3.95;3.17;;;;;;;;;;5094953;28;20024;-60
2021/06/01 03:49:05;;;;;;;4.57;2.97;;;;;;;;;;5094589;28;20061;-59
2021/06/01 03:51:32;;;;;;;3.83;3.33;;;;;;;;;;5094538;28;20115;-58
2021/06/01 03:53:57;;;;;;;4.07;3.05;;;;;;;;;;5094674;28;20441;-59
2021/06/01 03:56:23;;;;;;;4.32;3.40;;;;;;;;;;5094754;28;20022;-59
2021/06/01 03:58:48;;;;;;;3.50;3.20;;;;;;;;;;5094487;28;20020;-58
2021/06/01 04:01:14;;;;;;;3.55;3.22;;;;;;;;;;5094461;28;20036;-60
2021/06/01 04:03:41;;;;;;;3.90;3.42;;;;;;;;;;5094567;28;20016;-60
2021/06/01 04:06:07;;;;;;;3.40;2.70;;;;;;;;;;5094481;28;20105;-60
2021/06/01 04:08:35;;;;;;;2.97;2.78;;;;;;;;;;5094590;28;20035;-60
2021/06/01 04:11:01;;;;;;;3.28;2.72;;;;;;;;;;5094275;28;20024;-60
2021/06/01 04:13:26;;;;;;;5.25;2.80;;;;;;;;;;5094174;28;20355;-60
2021/06/01 04:15:52;;;;;;;5.50;2.92;;;;;;;;;;5094430;28;20032;-60
2021/06/01 04:18:17;;;;;;;4.20;2.88;;;;;;;;;;5094141;28;20095;-60
2021/06/01 04:20:42;;;;;;;4.05;3.03;;;;;;;;;;5094373;28;20020;-61
2021/06/01 04:23:08;;;;;;;3.95;3.58;;;;;;;;;;5076187;28;20024;-60
2021/06/01 04:25:35;;;;;;;4.65;3.90;;;;;;;;;;5094184;28;20028;-60
2021/06/01 04:28:00;;;;;;;3.97;3.38;;;;;;;;;;5094097;28;20070;-60
2021/06/01 04:30:26;;;;;;;6.32;3.13;;;;;;;;;;5094177;28;20347;-59
2021/06/01 04:32:51;;;;;;;3.92;3.00;;;;;;;;;;5094018;28;20020;-61
2021/06/01 04:35:17;;;;;;;2.95;2.65;;;;;;;;;;5093697;28;20397;-60
2021/06/01 04:37:42;;;;;;;3.58;2.90;;;;;;;;;;5093841;28;20343;-60
2021/06/01 04:40:11;;;;;;;3.70;2.85;;;;;;;;;;5093473;28;20036;-60
2021/06/01 04:42:37;;;;;;;2.80;2.60;;;;;;;;;;5093845;28;20094;-60
2021/06/01 04:45:03;;;;;;;3.15;2.60;;;;;;;;;;5093859;28;20028;-60
2021/06/01 04:47:28;;;;;;;3.05;2.83;;;;;;;;;;5093741;28;20446;-60
2021/06/01 04:49:54;;;;;;;3.70;3.00;;;;;;;;;;5093844;28;20024;-60
2021/06/01 04:52:20;;;;;;;3.65;2.85;;;;;;;;;;5093618;28;20016;-60
2021/06/01 04:54:45;;;;;;;2.83;2.60;;;;;;;;;;5092771;28;20043;-59
2021/06/01 04:57:11;;;;;;;3.90;2.63;;;;;;;;;;5093464;28;20462;-59
2021/06/01 04:59:37;;;;;;;3.45;3.15;;;;;;;;;;5093436;28;20047;-60
2021/06/01 05:02:03;;;;;;;4.40;3.78;;;;;;;;;;5093222;28;20070;-59
2021/06/01 05:04:29;;;;;;;4.72;3.85;;;;;;;;;;5093596;28;20028;-59
2021/06/01 05:06:57;;;;;;;5.32;3.85;;;;;;;;;;5093659;28;20012;-59
2021/06/01 05:09:23;;;;;;;7.85;3.95;;;;;;;;;;5093427;28;20111;-58
2021/06/01 05:11:48;;;;;;;4.25;3.88;;;;;;;;;;5093646;28;20099;-60
2021/06/01 05:14:14;;;;;;;4.45;3.80;;;;;;;;;;5093525;28;20046;-59
2021/06/01 05:16:39;;;;;;;5.35;3.80;;;;;;;;;;5093100;28;20026;-59
2021/06/01 05:19:05;;;;;;;5.47;4.10;;;;;;;;;;5093183;28;20051;-59
2021/06/01 05:21:30;;;;;;;6.22;4.53;;;;;;;;;;5093274;28;20111;-59
2021/06/01 05:23:56;;;;;;;5.00;4.05;;;;;;;;;;5093567;28;20047;-60
2021/06/01 05:26:21;;;;;;;5.88;4.32;;;;;;;;;;5097551;28;20103;-59
2021/06/01 05:28:47;;;;;;;4.85;4.40;;;;;;;;;;5097573;28;20376;-59
2021/06/01 05:33:52;;;;;;;5.43;3.83;;;;;;;;;;5097555;28;20028;-59
2021/06/01 05:36:18;;;;;;;4.03;3.70;;;;;;;;;;5097343;28;20035;-59
2021/06/01 05:38:43;;;;;;;4.97;3.72;;;;;;;;;;5096838;28;20040;-59
2021/06/01 05:41:08;;;;;;;3.55;3.25;;;;;;;;;;5097532;28;20435;-59
2021/06/01 05:43:34;;;;;;;4.75;4.00;;;;;;;;;;5097008;28;20036;-59
2021/06/01 05:46:00;;;;;;;8.73;3.85;;;;;;;;;;5097060;28;20035;-59
2021/06/01 05:48:25;;;;;;;7.90;4.65;;;;;;;;;;5097031;28;20031;-59
2021/06/01 05:50:51;;;;;;;8.02;4.10;;;;;;;;;;5096890;28;20024;-59
2021/06/01 05:53:17;;;;;;;4.78;3.97;;;;;;;;;;5097100;28;20020;-59
2021/06/01 05:55:43;;;;;;;8.45;5.90;;;;;;;;;;5096928;28;20039;-59
2021/06/01 05:58:09;;;;;;;11.02;6.97;;;;;;;;;;5096803;28;20031;-59
2021/06/01 06:00:34;;;;;;;10.15;7.03;;;;;;;;;;5096870;28;20028;-59
2021/06/01 06:03:01;;;;;;;6.88;4.78;;;;;;;;;;5096783;28;20020;-59
2021/06/01 06:05:27;;;;;;;4.32;3.75;;;;;;;;;;5096714;28;20032;-59
2021/06/01 06:07:52;;;;;;;6.55;3.47;;;;;;;;;;5096877;28;20020;-59
2021/06/01 06:10:18;;;;;;;4.05;3.67;;;;;;;;;;5096781;28;20035;-59
2021/06/01 06:12:43;;;;;;;3.88;3.58;;;;;;;;;;5096469;28;20095;-59
2021/06/01 06:15:15;;;;;;;3.78;3.13;;;;;;;;;;5096489;28;20462;-59
2021/06/01 06:17:48;;;;;;;3.20;2.95;;;;;;;;;;5096567;28;20020;-59
2021/06/01 06:20:13;;;;;;;4.03;2.92;;;;;;;;;;5096519;28;20036;-59
2021/06/01 06:22:39;;;;;;;3.35;3.05;;;;;;;;;;5078632;28;20035;-59
2021/06/01 06:25:09;;;;;;;4.60;2.95;;;;;;;;;;5096483;28;20036;-59
2021/06/01 06:27:35;;;;;;;5.10;3.37;;;;;;;;;;5096415;28;20036;-59
2021/06/01 06:30:00;;;;;;;4.65;3.30;;;;;;;;;;5096284;28;20282;-59
2021/06/01 06:32:26;;;;;;;4.15;2.83;;;;;;;;;;5096444;28;20028;-62
2021/06/01 06:34:54;;;;;;;4.35;2.60;;;;;;;;;;5096067;28;20016;-59
2021/06/01 06:37:20;;;;;;;4.00;2.72;;;;;;;;;;5096207;28;20032;-59
2021/06/01 06:39:45;;;;;;;3.05;2.72;;;;;;;;;;5095677;28;20047;-59
2021/06/01 06:42:11;;;;;;;3.47;2.58;;;;;;;;;;5095777;28;20035;-59
2021/06/01 06:44:37;;;;;;;2.83;2.58;;;;;;;;;;5076112;28;20393;-59
2021/06/01 06:49:35;;;;;;;2.42;2.22;;;;;;;;;;5095057;28;20115;-59
2021/06/01 06:52:01;;;;;;;2.13;1.90;;;;;;;;;;5095017;28;20106;-59
2021/06/01 06:54:27;;;;;;;2.45;2.03;;;;;;;;;;5095318;28;20024;-59
2021/06/01 06:56:52;;;;;;;3.33;1.80;;;;;;;;;;5095078;28;20004;-59
2021/06/01 06:59:18;;;;;;;2.42;2.00;;;;;;;;;;5095360;28;20108;-59
2021/06/01 07:01:44;;;;;;;2.20;1.90;;;;;;;;;;5095412;28;20385;-59
2021/06/01 07:04:09;;;;;;;2.35;2.15;;;;;;;;;;5095465;28;20020;-59
2021/06/01 07:06:35;;;;;;;2.03;1.80;;;;;;;;;;5095518;28;20073;-59
2021/06/01 07:09:00;;;;;;;2.35;1.70;;;;;;;;;;5095359;28;20028;-59
2021/06/01 07:11:25;;;;;;;2.75;1.85;;;;;;;;;;5095255;28;20385;-59
2021/06/01 07:14:14;;;;;;;1.80;1.70;;;;;;;;;;5095104;28;20032;-59
2021/06/01 07:16:39;;;;;;;2.33;2.03;;;;;;;;;;5095356;28;20024;-59
2021/06/01 07:19:05;;;;;;;2.20;1.30;;;;;;;;;;5095119;28;20351;-59
2021/06/01 07:21:31;;;;;;;3.22;1.50;;;;;;;;;;5076917;28;20032;-59
2021/06/01 07:23:57;;;;;;;1.70;1.60;;;;;;;;;;5095108;28;20064;-59
2021/06/01 07:26:23;;;;;;;1.40;1.30;;;;;;;;;;5095024;28;20111;-59
2021/06/01 07:28:48;;;;;;;2.47;1.33;;;;;;;;;;5095035;28;20074;-59
2021/06/01 07:31:15;;;;;;;1.58;1.48;;;;;;;;;;5076811;28;20036;-59
2021/06/01 07:33:41;;;;;;;1.75;1.30;;;;;;;;;;5095028;28;20069;-59
2021/06/01 07:36:06;;;;;;;3.35;1.20;;;;;;;;;;5094916;28;20024;-59
2021/06/01 07:38:32;;;;;;;1.38;1.27;;;;;;;;;;5094215;28;20020;-59
2021/06/01 07:40:58;;;;;;;1.13;1.13;;;;;;;;;;5076785;28;20123;-59
2021/06/01 07:43:23;;;;;;;1.45;1.30;;;;;;;;;;5077000;28;20032;-59
2021/06/01 07:45:49;;;;;;;1.30;1.27;;;;;;;;;;5094946;28;20085;-59
2021/06/01 07:48:15;;;;;;;2.92;1.50;;;;;;;;;;5093937;28;20019;-59
2021/06/01 07:50:41;;;;;;;1.13;1.13;;;;;;;;;;5076592;28;20397;-59
2021/06/01 07:53:06;;;;;;;1.35;1.35;;;;;;;;;;5094695;28;20008;-59
2021/06/01 07:55:32;;;;;;;1.45;1.35;;;;;;;;;;5094710;28;20474;-59
2021/06/01 07:57:58;;;;;;;3.28;1.25;;;;;;;;;;5094453;28;20113;-59
2021/06/01 08:00:25;;;;;;;1.10;1.10;;;;;;;;;;5094322;28;20055;-59
2021/06/01 08:02:51;;;;;;;3.42;1.40;;;;;;;;;;5094689;28;20074;-60
2021/06/01 08:05:19;;;;;;;1.92;1.25;;;;;;;;;;5094529;28;20036;-59
2021/06/01 08:07:45;;;;;;;1.65;1.35;;;;;;;;;;5093754;28;20027;-59
2021/06/01 08:10:11;;;;;;;1.52;1.30;;;;;;;;;;5094242;28;20477;-59
2021/06/01 08:12:36;;;;;;;2.45;1.40;;;;;;;;;;5094128;28;20048;-59
2021/06/01 08:15:03;;;;;;;3.25;1.15;;;;;;;;;;5094079;28;20032;-59
2021/06/01 08:17:29;;;;;;;1.30;1.30;;;;;;;;;;5093910;28;20055;-59
2021/06/01 08:19:56;;;;;;;4.60;1.65;;;;;;;;;;5093943;28;20052;-59
2021/06/01 08:24:47;;;;;;;4.32;1.50;;;;;;;;;;5094237;28;20119;-59
2021/06/01 08:27:12;;;;;;;1.52;1.40;;;;;;;;;;5094098;28;20024;-60
2021/06/01 08:29:38;;;;;;;3.55;1.63;;;;;;;;;;5076205;28;20031;-59
2021/06/01 08:32:04;;;;;;;2.15;1.30;;;;;;;;;;5094223;28;20062;-60
2021/06/01 08:34:30;;;;;;;17.60;1.75;;;;;;;;;;5094349;28;20086;-59
2021/06/01 08:36:56;;;;;;;1.20;1.10;;;;;;;;;;5094062;28;20462;-60
2021/06/01 08:39:26;;;;;;;1.30;1.20;;;;;;;;;;5092839;28;20048;-60
2021/06/01 08:41:52;;;;;;;1.15;1.05;;;;;;;;;;5093145;28;20032;-59
2021/06/01 08:44:18;;;;;;;1.25;1.15;;;;;;;;;;5093250;28;20115;-60
2021/06/01 08:46:49;;;;;;;3.13;1.55;;;;;;;;;;5092919;28;20110;-60
2021/06/01 08:49:14;;;;;;;;;;;;;;;;;;5075806;28;20112;-59
2021/06/01 08:51:39;;;;;;;2.30;1.15;;;;;;;;;;5093065;28;20420;-60
2021/06/01 08:54:05;;;;;;;1.48;1.30;;;;;;;;;;5092697;28;20020;-60
2021/06/01 08:56:31;;;;;;;2.45;1.23;;;;;;;;;;5093131;28;20111;-59
2021/06/01 08:58:56;;;;;;;2.03;1.45;;;;;;;;;;5093013;28;20063;-59
2021/06/01 09:01:22;;;;;;;2.03;1.30;;;;;;;;;;5093163;28;20446;-59
2021/06/01 09:03:51;;;;;;;2.35;1.25;;;;;;;;;;5092242;28;20493;-59
2021/06/01 09:22:34;;;;;;;1.75;1.25;;;;;;;;;;5092813;28;20497;-60
2021/06/01 09:25:08;;;;;;;5.70;1.40;;;;;;;;;;5092432;28;20022;-59
2021/06/01 09:27:44;;;;;;;1.40;1.30;;;;;;;;;;5092667;28;20051;-60
2021/06/01 09:30:10;;;;;;;9.68;2.65;;;;;;;;;;5092402;28;20107;-60
2021/06/01 09:32:43;;;;;;;3.80;1.70;;;;;;;;;;5092160;28;20528;-59
2021/06/01 09:35:09;;;;;;;3.60;1.50;;;;;;;;;;5092215;28;20048;-59
2021/06/01 09:37:36;;;;;;;2.55;1.50;;;;;;;;;;5092443;28;20453;-61
2021/06/01 09:40:12;;;;;;;1.80;1.33;;;;;;;;;;5031207;28;1230511;-60
2021/06/01 09:42:39;;;;;;;1.95;1.50;;;;;;;;;;5093093;28;20035;-61
2021/06/01 09:45:08;;;;;;;1.80;1.40;;;;;;;;;;5093300;28;20023;-61
2021/06/01 09:47:43;;;;;;;2.53;1.50;;;;;;;;;;5093390;28;20028;-60
2021/06/01 09:50:15;;;;;;;2.53;1.63;;;;;;;;;;5093091;28;20470;-60
2021/06/01 09:52:48;;;;;;;1.17;1.10;;;;;;;;;;5075108;28;20051;-60
2021/06/01 09:55:15;;;;;;;1.50;1.40;;;;;;;;;;5093112;28;20024;-60
2021/06/01 09:57:44;;;;;;;3.22;2.40;;;;;;;;;;5093168;28;20012;-60
2021/06/01 10:00:14;;;;;;;1.27;1.20;;;;;;;;;;5092592;28;20035;-59
2021/06/01 10:02:44;;;;;;;2.70;1.38;;;;;;;;;;5093231;28;20028;-60
2021/06/01 10:05:12;;;;;;;2.10;1.20;;;;;;;;;;5092783;28;20035;-60
2021/06/01 10:07:38;;;;;;;3.47;1.88;;;;;;;;;;5093115;28;20051;-60
2021/06/01 10:10:11;;;;;;;1.85;1.02;;;;;;;;;;5093592;28;20089;-60
2021/06/01 10:12:37;;;;;;;2.25;1.10;;;;;;;;;;5096984;28;20028;-60
2021/06/01 10:15:02;;;;;;;1.23;1.10;;;;;;;;;;5096870;28;20023;-61
2021/06/01 10:17:28;;;;;;;1.00;0.95;;;;;;;;;;5096457;28;20402;-60
2021/06/01 10:19:53;;;;;;;9.25;4.65;;;;;;;;;;5096309;28;20012;-59
2021/06/01 10:22:19;;;;;;;1.20;1.10;;;;;;;;;;5096282;28;20113;-60
2021/06/01 10:24:44;;;;;;;4.03;3.28;;;;;;;;;;5096577;28;20025;-59
2021/06/01 10:27:10;;;;;;;2.40;1.80;;;;;;;;;;5096403;28;20503;-59
2021/06/01 10:29:37;;;;;;;3.15;1.42;;;;;;;;;;5096138;28;20026;-59
2021/06/01 10:32:02;;;;;;;1.75;1.40;;;;;;;;;;5096233;28;20032;-59
2021/06/01 10:34:31;;;;;;;2.35;1.85;;;;;;;;;;5096370;28;20458;-59
2021/06/01 10:42:35;;;;;;;7.07;6.53;;;;;;;;;;5096311;28;20024;-65
2021/06/01 10:50:52;;;;;;;2.70;2.42;;;;;;;;;;5096196;28;20035;-60
2021/06/01 10:53:28;;;;;;;1.90;1.00;;;;;;;;;;5095701;28;20134;-65
2021/06/01 10:55:58;;;;;;;4.35;1.20;;;;;;;;;;5095478;28;20031;-60
2021/06/01 10:58:27;;;;;;;6.35;5.80;;;;;;;;;;5095805;28;20081;-60
2021/06/01 11:04:07;;;;;;;3.78;1.30;;;;;;;;;;5096094;28;20055;-58
2021/06/01 11:06:53;;;;;;;1.35;1.17;;;;;;;;;;5095494;28;20032;-58
2021/06/01 11:09:44;;;;;;;2.10;1.95;;;;;;;;;;5095640;28;20115;-58
2021/06/01 11:12:30;;;;;;;2.85;1.60;;;;;;;;;;5085393;28;20063;-59
2021/06/01 11:14:57;;;;;;;1.65;1.30;;;;;;;;;;5080803;28;20098;-59
2021/06/01 11:17:33;;;;;;;8.40;3.67;;;;;;;;;;5077479;28;20028;-58
2021/06/01 11:20:09;;;;;;;3.80;3.50;;;;;;;;;;5077535;28;20028;-58
2021/06/01 11:33:23;;;;;;;3.30;1.17;;;;;;;;;;5095516;28;20370;-58
2021/06/01 11:36:13;;;;;;;3.55;1.77;;;;;;;;;;5095319;28;20066;-58
2021/06/01 11:43:54;;;;;;;1.45;1.35;;;;;;;;;;5095153;28;20032;-58
2021/06/01 11:51:49;;;;;;;1.35;1.00;;;;;;;;;;5094379;28;20046;-59
2021/06/01 11:54:16;;;;;;;1.58;1.17;;;;;;;;;;5091780;28;20024;-58
2021/06/01 11:57:31;;;;;;;9.65;3.70;;;;;;;;;;5094675;28;20028;-58
2021/06/01 12:13:13;;;;;;;2.97;2.45;;;;;;;;;;5094593;28;20056;-58
2021/06/01 12:20:59;;;;;;;3.80;1.60;;;;;;;;;;5094337;28;20071;-59
2021/06/01 12:23:28;;;;;;;1.27;1.17;;;;;;;;;;5094127;28;20472;-58
2021/06/01 12:26:01;;;;;;;1.23;1.13;;;;;;;;;;5094257;28;20028;-59
2021/06/01 12:31:30;;;;;;;1.20;1.20;;;;;;;;;;5031978;28;20644;-58
2021/06/01 12:33:59;;;;;;;1.63;1.20;;;;;;;;;;5081691;28;20043;-58
2021/06/01 12:42:25;;;;;;;1.88;1.75;;;;;;;;;;5092400;28;20050;-59
2021/06/01 12:44:33;;;;;;;2.00;1.80;;;;;;;;;;5085028;28;20036;-58
2021/06/01 13:38:40;;;;;;;2.90;2.70;;;;;;;;;;5092969;28;20074;-59
2021/06/01 13:46:42;;;;;;;7.38;5.70;;;;;;;;;;5097014;28;20028;-58
2021/06/01 13:49:34;;;;;;;1.50;1.40;;;;;;;;;;5097145;28;20039;-59
2021/06/01 14:30:29;;;;;;;1.90;1.50;;;;;;;;;;5095330;28;20036;-61
2021/06/01 14:36:11;;;;;;;5.57;5.07;;;;;;;;;;5096324;28;20035;-62
2021/06/01 15:11:27;;;;;;;2.50;2.30;;;;;;;;;;5095362;28;20492;-61
2021/06/01 15:41:29;;;;;;;1.70;1.27;;;;;;;;;;5095325;28;20378;-58
2021/06/01 15:49:27;;;;;;;4.07;1.60;;;;;;;;;;5095370;28;20462;-58
2021/06/01 15:52:40;;;;;;;1.60;1.50;;;;;;;;;;5095042;28;20111;-58
2021/06/01 16:23:09;;;;;;;1.77;1.40;;;;;;;;;;5094857;28;20077;-58
2021/06/01 17:04:33;;;;;;;3.17;2.88;;;;;;;;;;5073705;28;20078;-58
2021/06/01 17:14:40;;;;;;;12.70;9.73;;;;;;;;;;5012115;28;20064;-58
2021/06/01 17:17:07;;;;;;;22.42;14.50;;;;;;;;;;5011707;28;20500;-58
2021/06/01 17:35:47;;;;;;;15.70;9.60;;;;;;;;;;5007033;28;20052;-58
2021/06/01 17:38:13;;;;;;;16.10;9.32;;;;;;;;;;5043066;28;20500;-58
2021/06/01 17:40:40;;;;;;;7.10;5.15;;;;;;;;;;5069964;28;20024;-58
2021/06/01 17:43:06;;;;;;;4.43;3.58;;;;;;;;;;5088133;28;20066;-58
2021/06/01 17:45:35;;;;;;;4.35;3.95;;;;;;;;;;5087434;28;20066;-58
2021/06/01 17:48:04;;;;;;;4.00;3.60;;;;;;;;;;5086475;28;20059;-58
2021/06/01 17:50:29;;;;;;;9.57;7.53;;;;;;;;;;5087831;28;20115;-58
2021/06/01 17:56:32;;;;;;;2.28;2.10;;;;;;;;;;5093486;28;20089;-58
2021/06/01 17:58:58;;;;;;;6.22;3.90;;;;;;;;;;5092223;28;20036;-59
2021/06/01 18:01:24;;;;;;;7.43;5.38;;;;;;;;;;5071272;28;20024;-58
2021/06/01 18:04:04;;;;;;;4.60;3.20;;;;;;;;;;5089380;28;20032;-58
2021/06/01 18:06:37;;;;;;;3.22;2.40;;;;;;;;;;5089718;28;20056;-58
2021/06/01 19:50:33;;;;;;;6.03;5.30;;;;;;;;;;5056848;28;20494;-57
2021/06/01 19:53:00;;;;;;;10.07;6.43;;;;;;;;;;5074920;28;20028;-57
2021/06/01 19:55:27;;;;;;;9.98;6.15;;;;;;;;;;5074635;28;20502;-57
2021/06/01 19:57:53;;;;;;;8.88;6.25;;;;;;;;;;5074729;28;20103;-58
2021/06/01 20:00:19;;;;;;;9.07;6.53;;;;;;;;;;5074264;28;20040;-57
2021/06/01 20:02:45;;;;;;;12.27;6.88;;;;;;;;;;5074579;28;20111;-58
2021/06/01 20:05:12;;;;;;;16.67;9.55;;;;;;;;;;5074436;28;20112;-58
2021/06/01 20:07:38;;;;;;;13.55;8.25;;;;;;;;;;5073821;28;20035;-57
2021/06/01 20:10:04;;;;;;;20.75;12.25;;;;;;;;;;5074287;28;20028;-58
2021/06/01 20:12:30;;;;;;;23.08;17.23;;;;;;;;;;5074580;28;20474;-58
2021/06/01 20:14:56;;;;;;;37.22;31.88;;;;;;;;;;5074348;28;20051;-57
2021/06/01 20:17:36;;;;;;;46.90;41.88;;;;;;;;;;5074092;28;20020;-58
2021/06/01 20:20:07;;;;;;;21.65;17.13;;;;;;;;;;5056130;28;20055;-58
2021/06/01 20:22:36;;;;;;;13.13;9.15;;;;;;;;;;5073925;28;20028;-58
2021/06/01 20:25:05;;;;;;;10.95;8.18;;;;;;;;;;5073863;28;20058;-61
2021/06/01 20:27:32;;;;;;;11.63;7.70;;;;;;;;;;5056099;28;20035;-61
2021/06/01 20:30:01;;;;;;;19.98;17.52;;;;;;;;;;5073761;28;20020;-60
2021/06/01 20:35:15;;;;;;;18.15;10.13;;;;;;;;;;5073756;28;20043;-58
2021/06/01 20:37:43;;;;;;;10.20;6.82;;;;;;;;;;5073750;28;20028;-58
2021/06/01 20:40:17;;;;;;;9.13;7.00;;;;;;;;;;5073510;28;20029;-58
2021/06/01 20:42:46;;;;;;;8.73;7.13;;;;;;;;;;5055639;28;20131;-58
2021/06/01 20:45:11;;;;;;;7.40;6.22;;;;;;;;;;5073539;28;20032;-58
2021/06/01 20:47:37;;;;;;;9.20;6.22;;;;;;;;;;5073949;28;20690;-58
2021/06/01 20:50:03;;;;;;;8.95;5.97;;;;;;;;;;5073355;28;20028;-58
2021/06/01 20:52:29;;;;;;;9.07;6.22;;;;;;;;;;5073273;28;20024;-58
2021/06/01 20:54:54;;;;;;;21.48;11.95;;;;;;;;;;5073221;28;20017;-58
2021/06/01 20:57:22;;;;;;;24.42;12.43;;;;;;;;;;5073080;28;20029;-58
2021/06/01 20:59:51;;;;;;;52.70;25.35;;;;;;;;;;5073256;28;20063;-58
2021/06/01 21:02:17;;;;;;;42.10;21.83;;;;;;;;;;5073162;28;20067;-58
2021/06/01 21:04:44;;;;;;;36.00;19.55;;;;;;;;;;5073096;28;20021;-58
2021/06/01 21:07:09;;;;;;;40.85;20.48;;;;;;;;;;5073198;28;20028;-59
2021/06/01 21:09:37;;;;;;;35.45;17.67;;;;;;;;;;5073021;28;20027;-58
2021/06/01 21:12:02;;;;;;;23.73;13.45;;;;;;;;;;5073343;28;20040;-58
2021/06/01 21:14:28;;;;;;;21.33;12.50;;;;;;;;;;5073328;28;20078;-57
2021/06/01 21:16:54;;;;;;;14.40;9.07;;;;;;;;;;5073281;28;20016;-58
2021/06/01 21:19:19;;;;;;;9.82;7.30;;;;;;;;;;5073488;28;20035;-58
2021/06/01 21:21:45;;;;;;;11.38;7.30;;;;;;;;;;5055543;28;20089;-57
2021/06/01 21:24:10;;;;;;;12.25;6.90;;;;;;;;;;5055351;28;20025;-59
2021/06/01 21:26:36;;;;;;;17.20;10.38;;;;;;;;;;5038878;28;20043;-57
2021/06/01 21:29:02;;;;;;;14.73;9.35;;;;;;;;;;5073579;28;20031;-58
2021/06/01 21:31:32;;;;;;;17.08;10.65;;;;;;;;;;5073176;28;20021;-58
2021/06/01 21:33:59;;;;;;;19.13;11.52;;;;;;;;;;5073313;28;20106;-58
2021/06/01 21:36:25;;;;;;;15.95;10.85;;;;;;;;;;5073447;28;20369;-58
2021/06/01 21:38:51;;;;;;;17.60;9.70;;;;;;;;;;5073316;28;20447;-58
2021/06/01 21:41:17;;;;;;;16.48;10.57;;;;;;;;;;5073253;28;20070;-58
2021/06/01 21:43:43;;;;;;;15.05;9.27;;;;;;;;;;5073254;28;20078;-58
2021/06/01 21:46:09;;;;;;;26.27;12.65;;;;;;;;;;5073207;28;20036;-59
2021/06/01 21:48:39;;;;;;;10.90;6.63;;;;;;;;;;5073040;28;20031;-58
2021/06/01 21:51:05;;;;;;;15.35;9.55;;;;;;;;;;5073247;28;20031;-58
2021/06/01 21:53:30;;;;;;;17.33;9.88;;;;;;;;;;5072783;28;20093;-58
2021/06/01 21:55:56;;;;;;;16.65;10.85;;;;;;;;;;5072526;28;20446;-58
2021/06/01 21:58:21;;;;;;;20.05;11.60;;;;;;;;;;5072783;28;20116;-58
2021/06/01 22:00:49;;;;;;;20.88;12.15;;;;;;;;;;5073145;28;20490;-58
2021/06/01 22:03:19;;;;;;;21.63;12.32;;;;;;;;;;5073153;28;20078;-61
2021/06/01 22:05:45;;;;;;;20.83;11.40;;;;;;;;;;5072870;28;20024;-61
2021/06/01 22:08:12;;;;;;;31.95;16.20;;;;;;;;;;5076670;28;20020;-60
2021/06/01 22:10:38;;;;;;;46.97;22.85;;;;;;;;;;5076790;28;20035;-61
2021/06/01 22:13:04;;;;;;;45.80;21.08;;;;;;;;;;5076726;28;20012;-61
2021/06/01 22:15:38;;;;;;;53.70;26.13;;;;;;;;;;5076645;28;20497;-61
2021/06/01 22:18:05;;;;;;;42.20;21.67;;;;;;;;;;5058967;28;20025;-60
2021/06/01 22:20:31;;;;;;;23.30;13.75;;;;;;;;;;5076531;28;20597;-61
2021/06/01 22:22:58;;;;;;;26.48;14.43;;;;;;;;;;5076610;28;20058;-61